sensor_id;sensor_type;location;lat;lon;timestamp;temperature;humidity
70074;DHT22;57445;51.058;3.698;2023-04-06T00:01:04;11.90;60.80
70074;DHT22;57445;51.058;3.698;2023-04-06T00:03:32;11.90;60.80
70074;DHT22;57445;51.058;3.698;2023-04-06T00:06:06;11.70;61.10
70074;DHT22;57445;51.058;3.698;2023-04-06T00:08:38;11.40;62.30
70074;DHT22;57445;51.058;3.698;2023-04-06T00:11:07;11.50;62.20
70074;DHT22;57445;51.058;3.698;2023-04-06T00:13:40;11.70;61.90
70074;DHT22;57445;51.058;3.698;2023-04-06T00:16:12;11.90;62.00
70074;DHT22;57445;51.058;3.698;2023-04-06T00:18:40;11.70;62.70
70074;DHT22;57445;51.058;3.698;2023-04-06T00:21:11;11.60;63.10
70074;DHT22;57445;51.058;3.698;2023-04-06T00:23:45;11.40;63.80
70074;DHT22;57445;51.058;3.698;2023-04-06T00:26:17;11.60;63.70
70074;DHT22;57445;51.058;3.698;2023-04-06T00:28:46;11.80;63.10
70074;DHT22;57445;51.058;3.698;2023-04-06T00:31:13;11.80;63.20
70074;DHT22;57445;51.058;3.698;2023-04-06T00:33:47;11.40;64.50
70074;DHT22;57445;51.058;3.698;2023-04-06T00:36:20;11.30;65.00
70074;DHT22;57445;51.058;3.698;2023-04-06T00:38:52;11.60;64.50
70074;DHT22;57445;51.058;3.698;2023-04-06T00:41:20;11.40;64.90
70074;DHT22;57445;51.058;3.698;2023-04-06T00:43:48;11.30;65.70
70074;DHT22;57445;51.058;3.698;2023-04-06T00:46:16;11.50;65.30
70074;DHT22;57445;51.058;3.698;2023-04-06T00:48:44;11.60;65.10
70074;DHT22;57445;51.058;3.698;2023-04-06T00:51:12;11.50;65.60
70074;DHT22;57445;51.058;3.698;2023-04-06T00:53:46;11.40;66.00
70074;DHT22;57445;51.058;3.698;2023-04-06T00:56:14;11.40;66.30
70074;DHT22;57445;51.058;3.698;2023-04-06T00:58:48;11.50;66.20
70074;DHT22;57445;51.058;3.698;2023-04-06T01:01:22;11.40;66.50
70074;DHT22;57445;51.058;3.698;2023-04-06T01:03:51;11.50;66.60
70074;DHT22;57445;51.058;3.698;2023-04-06T01:06:23;11.60;66.30
70074;DHT22;57445;51.058;3.698;2023-04-06T01:08:52;11.80;66.40
70074;DHT22;57445;51.058;3.698;2023-04-06T01:11:21;11.70;66.70
70074;DHT22;57445;51.058;3.698;2023-04-06T01:13:49;11.70;67.10
70074;DHT22;57445;51.058;3.698;2023-04-06T01:16:16;11.90;66.70
70074;DHT22;57445;51.058;3.698;2023-04-06T01:18:44;12.00;66.70
70074;DHT22;57445;51.058;3.698;2023-04-06T01:21:17;11.90;67.50
70074;DHT22;57445;51.058;3.698;2023-04-06T01:23:46;11.70;68.30
70074;DHT22;57445;51.058;3.698;2023-04-06T01:26:17;11.90;68.40
70074;DHT22;57445;51.058;3.698;2023-04-06T01:28:46;11.70;68.90
70074;DHT22;57445;51.058;3.698;2023-04-06T01:31:14;11.70;69.30
70074;DHT22;57445;51.058;3.698;2023-04-06T01:33:42;11.90;69.10
70074;DHT22;57445;51.058;3.698;2023-04-06T01:36:14;11.70;69.40
70074;DHT22;57445;51.058;3.698;2023-04-06T01:38:50;11.70;70.00
70074;DHT22;57445;51.058;3.698;2023-04-06T01:41:28;11.70;70.30
70074;DHT22;57445;51.058;3.698;2023-04-06T01:43:56;11.60;70.90
70074;DHT22;57445;51.058;3.698;2023-04-06T01:46:24;11.60;70.90
70074;DHT22;57445;51.058;3.698;2023-04-06T01:48:52;11.70;70.80
70074;DHT22;57445;51.058;3.698;2023-04-06T01:51:21;11.80;70.50
70074;DHT22;57445;51.058;3.698;2023-04-06T01:53:52;11.80;70.70
70074;DHT22;57445;51.058;3.698;2023-04-06T01:56:21;11.80;71.10
70074;DHT22;57445;51.058;3.698;2023-04-06T01:58:53;11.80;71.00
70074;DHT22;57445;51.058;3.698;2023-04-06T02:01:21;11.70;71.40
70074;DHT22;57445;51.058;3.698;2023-04-06T02:03:53;11.60;72.30
70074;DHT22;57445;51.058;3.698;2023-04-06T02:06:21;11.60;72.70
70074;DHT22;57445;51.058;3.698;2023-04-06T02:08:49;11.60;73.10
70074;DHT22;57445;51.058;3.698;2023-04-06T02:11:18;11.60;73.00
70074;DHT22;57445;51.058;3.698;2023-04-06T02:13:46;11.70;73.00
70074;DHT22;57445;51.058;3.698;2023-04-06T02:16:14;11.60;73.30
70074;DHT22;57445;51.058;3.698;2023-04-06T02:18:45;11.60;73.80
70074;DHT22;57445;51.058;3.698;2023-04-06T02:21:17;11.60;74.00
70074;DHT22;57445;51.058;3.698;2023-04-06T02:23:51;11.50;74.20
70074;DHT22;57445;51.058;3.698;2023-04-06T02:26:20;11.80;74.30
70074;DHT22;57445;51.058;3.698;2023-04-06T02:28:52;11.60;74.30
70074;DHT22;57445;51.058;3.698;2023-04-06T02:31:21;11.50;74.70
70074;DHT22;57445;51.058;3.698;2023-04-06T02:33:48;11.60;74.70
70074;DHT22;57445;51.058;3.698;2023-04-06T02:36:17;11.70;74.20
70074;DHT22;57445;51.058;3.698;2023-04-06T02:38:45;11.70;74.50
70074;DHT22;57445;51.058;3.698;2023-04-06T02:41:13;11.80;74.60
70074;DHT22;57445;51.058;3.698;2023-04-06T02:43:42;11.60;74.90
70074;DHT22;57445;51.058;3.698;2023-04-06T02:46:14;11.50;75.40
70074;DHT22;57445;51.058;3.698;2023-04-06T02:48:47;11.60;75.60
70074;DHT22;57445;51.058;3.698;2023-04-06T02:51:14;11.60;75.30
70074;DHT22;57445;51.058;3.698;2023-04-06T02:53:47;11.60;75.20
70074;DHT22;57445;51.058;3.698;2023-04-06T02:56:19;11.60;75.60
70074;DHT22;57445;51.058;3.698;2023-04-06T02:58:53;11.20;76.80
70074;DHT22;57445;51.058;3.698;2023-04-06T03:01:21;11.30;77.00
70074;DHT22;57445;51.058;3.698;2023-04-06T03:03:51;11.20;77.00
70074;DHT22;57445;51.058;3.698;2023-04-06T03:06:19;11.40;77.70
70074;DHT22;57445;51.058;3.698;2023-04-06T03:08:47;11.20;77.50
70074;DHT22;57445;51.058;3.698;2023-04-06T03:11:14;11.20;78.00
70074;DHT22;57445;51.058;3.698;2023-04-06T03:13:47;11.20;78.20
70074;DHT22;57445;51.058;3.698;2023-04-06T03:16:16;11.20;78.20
70074;DHT22;57445;51.058;3.698;2023-04-06T03:18:44;11.10;78.80
70074;DHT22;57445;51.058;3.698;2023-04-06T03:21:13;10.80;79.50
70074;DHT22;57445;51.058;3.698;2023-04-06T03:23:47;10.80;79.90
70074;DHT22;57445;51.058;3.698;2023-04-06T03:26:17;10.90;79.60
70074;DHT22;57445;51.058;3.698;2023-04-06T03:28:45;11.10;79.10
70074;DHT22;57445;51.058;3.698;2023-04-06T03:31:19;11.10;79.30
70074;DHT22;57445;51.058;3.698;2023-04-06T03:33:51;11.00;79.30
70074;DHT22;57445;51.058;3.698;2023-04-06T03:36:19;11.00;80.00
70074;DHT22;57445;51.058;3.698;2023-04-06T03:38:52;11.20;79.10
70074;DHT22;57445;51.058;3.698;2023-04-06T03:41:20;11.40;78.40
70074;DHT22;57445;51.058;3.698;2023-04-06T03:43:52;11.30;78.70
70074;DHT22;57445;51.058;3.698;2023-04-06T03:46:26;11.30;79.60
70074;DHT22;57445;51.058;3.698;2023-04-06T03:48:54;11.10;80.30
70074;DHT22;57445;51.058;3.698;2023-04-06T03:51:27;11.10;80.20
70074;DHT22;57445;51.058;3.698;2023-04-06T03:53:54;11.20;79.90
70074;DHT22;57445;51.058;3.698;2023-04-06T03:56:22;11.10;80.50
70074;DHT22;57445;51.058;3.698;2023-04-06T03:58:55;11.20;80.60
70074;DHT22;57445;51.058;3.698;2023-04-06T04:01:29;11.10;81.10
70074;DHT22;57445;51.058;3.698;2023-04-06T04:04:01;10.90;81.90
70074;DHT22;57445;51.058;3.698;2023-04-06T04:06:34;10.80;82.60
70074;DHT22;57445;51.058;3.698;2023-04-06T04:09:07;10.80;83.70
70074;DHT22;57445;51.058;3.698;2023-04-06T04:11:35;11.00;83.10
70074;DHT22;57445;51.058;3.698;2023-04-06T04:14:07;11.10;82.40
70074;DHT22;57445;51.058;3.698;2023-04-06T04:16:36;11.20;81.80
70074;DHT22;57445;51.058;3.698;2023-04-06T04:19:05;11.10;82.50
70074;DHT22;57445;51.058;3.698;2023-04-06T04:21:43;11.00;82.90
70074;DHT22;57445;51.058;3.698;2023-04-06T04:24:11;10.90;83.30
70074;DHT22;57445;51.058;3.698;2023-04-06T04:26:40;10.90;83.80
70074;DHT22;57445;51.058;3.698;2023-04-06T04:29:12;11.10;83.60
70074;DHT22;57445;51.058;3.698;2023-04-06T04:31:41;10.90;84.50
70074;DHT22;57445;51.058;3.698;2023-04-06T04:34:14;10.80;85.20
70074;DHT22;57445;51.058;3.698;2023-04-06T04:36:42;10.80;85.30
70074;DHT22;57445;51.058;3.698;2023-04-06T04:39:10;10.90;85.30
70074;DHT22;57445;51.058;3.698;2023-04-06T04:41:42;10.80;86.10
70074;DHT22;57445;51.058;3.698;2023-04-06T04:44:15;10.90;86.20
70074;DHT22;57445;51.058;3.698;2023-04-06T04:46:44;11.10;85.90
70074;DHT22;57445;51.058;3.698;2023-04-06T04:49:13;11.10;86.00
70074;DHT22;57445;51.058;3.698;2023-04-06T04:51:45;11.20;86.00
70074;DHT22;57445;51.058;3.698;2023-04-06T04:54:17;11.40;86.00
70074;DHT22;57445;51.058;3.698;2023-04-06T04:56:49;11.20;86.00
70074;DHT22;57445;51.058;3.698;2023-04-06T04:59:22;11.20;86.80
70074;DHT22;57445;51.058;3.698;2023-04-06T05:01:51;11.30;87.40
70074;DHT22;57445;51.058;3.698;2023-04-06T05:04:19;11.30;87.20
70074;DHT22;57445;51.058;3.698;2023-04-06T05:07:02;11.40;87.50
70074;DHT22;57445;51.058;3.698;2023-04-06T05:09:35;11.20;88.80
70074;DHT22;57445;51.058;3.698;2023-04-06T05:12:03;11.10;90.10
70074;DHT22;57445;51.058;3.698;2023-04-06T05:14:30;11.10;90.50
70074;DHT22;57445;51.058;3.698;2023-04-06T05:17:00;11.20;90.90
70074;DHT22;57445;51.058;3.698;2023-04-06T05:19:28;11.30;91.10
70074;DHT22;57445;51.058;3.698;2023-04-06T05:21:56;11.40;91.30
70074;DHT22;57445;51.058;3.698;2023-04-06T05:24:28;11.20;91.80
70074;DHT22;57445;51.058;3.698;2023-04-06T05:26:56;11.20;92.20
70074;DHT22;57445;51.058;3.698;2023-04-06T05:29:23;11.20;92.70
70074;DHT22;57445;51.058;3.698;2023-04-06T05:31:51;11.20;93.00
70074;DHT22;57445;51.058;3.698;2023-04-06T05:34:25;11.20;93.30
70074;DHT22;57445;51.058;3.698;2023-04-06T05:36:53;11.30;93.30
70074;DHT22;57445;51.058;3.698;2023-04-06T05:39:21;11.30;93.80
70074;DHT22;57445;51.058;3.698;2023-04-06T05:41:53;11.40;93.90
70074;DHT22;57445;51.058;3.698;2023-04-06T05:44:26;11.10;94.70
70074;DHT22;57445;51.058;3.698;2023-04-06T05:46:53;11.20;95.40
70074;DHT22;57445;51.058;3.698;2023-04-06T05:49:22;11.20;95.60
70074;DHT22;57445;51.058;3.698;2023-04-06T05:51:55;11.40;95.60
70074;DHT22;57445;51.058;3.698;2023-04-06T05:54:27;11.40;95.80
70074;DHT22;57445;51.058;3.698;2023-04-06T05:57:01;11.00;96.20
70074;DHT22;57445;51.058;3.698;2023-04-06T05:59:30;11.10;96.40
70074;DHT22;57445;51.058;3.698;2023-04-06T06:01:58;11.30;96.30
70074;DHT22;57445;51.058;3.698;2023-04-06T06:04:32;11.20;96.30
70074;DHT22;57445;51.058;3.698;2023-04-06T06:07:05;11.20;96.50
70074;DHT22;57445;51.058;3.698;2023-04-06T06:09:38;11.20;96.30
70074;DHT22;57445;51.058;3.698;2023-04-06T06:12:11;11.00;96.60
70074;DHT22;57445;51.058;3.698;2023-04-06T06:14:39;11.00;96.70
70074;DHT22;57445;51.058;3.698;2023-04-06T06:17:07;11.20;96.20
70074;DHT22;57445;51.058;3.698;2023-04-06T06:19:35;11.20;95.90
70074;DHT22;57445;51.058;3.698;2023-04-06T06:22:11;11.10;96.20
70074;DHT22;57445;51.058;3.698;2023-04-06T06:24:43;11.10;96.00
70074;DHT22;57445;51.058;3.698;2023-04-06T06:27:11;11.10;95.70
70074;DHT22;57445;51.058;3.698;2023-04-06T06:29:43;11.10;96.00
70074;DHT22;57445;51.058;3.698;2023-04-06T06:32:11;11.10;95.60
70074;DHT22;57445;51.058;3.698;2023-04-06T06:34:44;11.20;95.80
70074;DHT22;57445;51.058;3.698;2023-04-06T06:37:17;11.20;95.20
70074;DHT22;57445;51.058;3.698;2023-04-06T06:39:45;10.90;95.70
70074;DHT22;57445;51.058;3.698;2023-04-06T06:42:13;10.90;96.20
70074;DHT22;57445;51.058;3.698;2023-04-06T06:44:48;11.10;95.80
70074;DHT22;57445;51.058;3.698;2023-04-06T06:47:20;11.10;95.50
70074;DHT22;57445;51.058;3.698;2023-04-06T06:49:53;11.20;95.50
70074;DHT22;57445;51.058;3.698;2023-04-06T06:52:26;11.30;95.40
70074;DHT22;57445;51.058;3.698;2023-04-06T06:54:55;11.40;95.50
70074;DHT22;57445;51.058;3.698;2023-04-06T06:57:28;11.10;95.80
70074;DHT22;57445;51.058;3.698;2023-04-06T06:59:56;11.30;95.50
70074;DHT22;57445;51.058;3.698;2023-04-06T07:02:30;11.20;96.20
70074;DHT22;57445;51.058;3.698;2023-04-06T07:04:58;11.30;96.10
70074;DHT22;57445;51.058;3.698;2023-04-06T07:07:27;11.30;96.20
70074;DHT22;57445;51.058;3.698;2023-04-06T07:09:55;11.40;96.00
70074;DHT22;57445;51.058;3.698;2023-04-06T07:12:27;11.70;95.70
70074;DHT22;57445;51.058;3.698;2023-04-06T07:14:55;11.70;95.40
70074;DHT22;57445;51.058;3.698;2023-04-06T07:17:22;12.00;95.20
70074;DHT22;57445;51.058;3.698;2023-04-06T07:19:51;12.00;95.20
70074;DHT22;57445;51.058;3.698;2023-04-06T07:22:23;12.00;94.90
70074;DHT22;57445;51.058;3.698;2023-04-06T07:24:52;12.10;95.40
70074;DHT22;57445;51.058;3.698;2023-04-06T07:27:24;12.30;95.30
70074;DHT22;57445;51.058;3.698;2023-04-06T07:29:56;12.10;95.30
70074;DHT22;57445;51.058;3.698;2023-04-06T07:32:24;12.10;95.40
70074;DHT22;57445;51.058;3.698;2023-04-06T07:34:52;12.30;94.80
70074;DHT22;57445;51.058;3.698;2023-04-06T07:37:20;12.40;94.80
70074;DHT22;57445;51.058;3.698;2023-04-06T07:39:48;12.20;95.00
70074;DHT22;57445;51.058;3.698;2023-04-06T07:42:17;12.20;95.30
70074;DHT22;57445;51.058;3.698;2023-04-06T07:44:52;12.00;95.30
70074;DHT22;57445;51.058;3.698;2023-04-06T07:47:20;12.00;95.70
70074;DHT22;57445;51.058;3.698;2023-04-06T07:49:48;12.00;95.60
70074;DHT22;57445;51.058;3.698;2023-04-06T07:52:20;12.00;95.70
70074;DHT22;57445;51.058;3.698;2023-04-06T07:54:48;11.90;95.70
70074;DHT22;57445;51.058;3.698;2023-04-06T07:57:18;11.90;96.10
70074;DHT22;57445;51.058;3.698;2023-04-06T07:59:48;12.00;96.20
70074;DHT22;57445;51.058;3.698;2023-04-06T08:02:19;11.80;96.50
70074;DHT22;57445;51.058;3.698;2023-04-06T08:04:51;11.90;96.40
70074;DHT22;57445;51.058;3.698;2023-04-06T08:07:23;11.90;96.70
70074;DHT22;57445;51.058;3.698;2023-04-06T08:09:52;11.80;96.50
70074;DHT22;57445;51.058;3.698;2023-04-06T08:12:25;11.90;96.60
70074;DHT22;57445;51.058;3.698;2023-04-06T08:14:53;12.10;96.60
70074;DHT22;57445;51.058;3.698;2023-04-06T08:17:26;12.20;96.20
70074;DHT22;57445;51.058;3.698;2023-04-06T08:20:01;12.30;96.20
70074;DHT22;57445;51.058;3.698;2023-04-06T08:22:34;12.30;96.70
70074;DHT22;57445;51.058;3.698;2023-04-06T08:25:03;12.30;96.20
70074;DHT22;57445;51.058;3.698;2023-04-06T08:27:37;12.30;96.10
70074;DHT22;57445;51.058;3.698;2023-04-06T08:30:10;12.20;96.10
70074;DHT22;57445;51.058;3.698;2023-04-06T08:32:38;12.30;96.00
70074;DHT22;57445;51.058;3.698;2023-04-06T08:35:08;12.40;96.40
70074;DHT22;57445;51.058;3.698;2023-04-06T08:37:35;12.60;96.10
70074;DHT22;57445;51.058;3.698;2023-04-06T08:40:08;12.60;95.90
70074;DHT22;57445;51.058;3.698;2023-04-06T08:42:50;12.50;95.90
70074;DHT22;57445;51.058;3.698;2023-04-06T08:45:19;12.60;96.00
70074;DHT22;57445;51.058;3.698;2023-04-06T08:47:52;12.60;95.60
70074;DHT22;57445;51.058;3.698;2023-04-06T08:50:22;12.50;96.00
70074;DHT22;57445;51.058;3.698;2023-04-06T08:52:51;12.50;96.10
70074;DHT22;57445;51.058;3.698;2023-04-06T08:55:20;12.60;96.10
70074;DHT22;57445;51.058;3.698;2023-04-06T08:57:50;12.40;96.10
70074;DHT22;57445;51.058;3.698;2023-04-06T09:00:25;12.70;95.80
70074;DHT22;57445;51.058;3.698;2023-04-06T09:02:54;12.70;95.60
70074;DHT22;57445;51.058;3.698;2023-04-06T09:05:28;12.60;95.80
70074;DHT22;57445;51.058;3.698;2023-04-06T09:07:56;12.60;96.20
70074;DHT22;57445;51.058;3.698;2023-04-06T09:10:28;12.70;96.40
70074;DHT22;57445;51.058;3.698;2023-04-06T09:13:04;12.40;96.90
70074;DHT22;57445;51.058;3.698;2023-04-06T09:15:33;12.60;95.90
70074;DHT22;57445;51.058;3.698;2023-04-06T09:18:01;12.30;97.10
70074;DHT22;57445;51.058;3.698;2023-04-06T09:20:29;12.30;97.50
70074;DHT22;57445;51.058;3.698;2023-04-06T09:22:57;12.30;97.30
70074;DHT22;57445;51.058;3.698;2023-04-06T09:25:26;12.40;96.80
70074;DHT22;57445;51.058;3.698;2023-04-06T09:28:01;12.20;97.80
70074;DHT22;57445;51.058;3.698;2023-04-06T09:30:35;12.30;97.00
70074;DHT22;57445;51.058;3.698;2023-04-06T09:33:04;12.20;97.70
70074;DHT22;57445;51.058;3.698;2023-04-06T09:35:37;12.00;97.80
70074;DHT22;57445;51.058;3.698;2023-04-06T09:38:11;11.90;98.70
70074;DHT22;57445;51.058;3.698;2023-04-06T09:40:48;12.20;97.90
70074;DHT22;57445;51.058;3.698;2023-04-06T09:43:24;12.50;97.50
70074;DHT22;57445;51.058;3.698;2023-04-06T09:45:55;12.30;98.00
70074;DHT22;57445;51.058;3.698;2023-04-06T09:48:24;12.50;97.50
70074;DHT22;57445;51.058;3.698;2023-04-06T09:50:56;12.60;97.60
70074;DHT22;57445;51.058;3.698;2023-04-06T09:53:30;12.80;97.10
70074;DHT22;57445;51.058;3.698;2023-04-06T09:56:02;12.80;97.00
70074;DHT22;57445;51.058;3.698;2023-04-06T09:58:34;12.50;98.00
70074;DHT22;57445;51.058;3.698;2023-04-06T10:01:13;12.50;97.90
70074;DHT22;57445;51.058;3.698;2023-04-06T10:03:47;12.60;98.00
70074;DHT22;57445;51.058;3.698;2023-04-06T10:06:22;12.50;98.20
70074;DHT22;57445;51.058;3.698;2023-04-06T10:08:52;12.70;98.20
70074;DHT22;57445;51.058;3.698;2023-04-06T10:11:22;12.60;98.10
70074;DHT22;57445;51.058;3.698;2023-04-06T10:13:55;12.70;98.00
70074;DHT22;57445;51.058;3.698;2023-04-06T10:16:25;12.70;98.10
70074;DHT22;57445;51.058;3.698;2023-04-06T10:21:47;12.70;98.60
70074;DHT22;57445;51.058;3.698;2023-04-06T10:24:16;12.40;99.10
70074;DHT22;57445;51.058;3.698;2023-04-06T10:26:56;12.60;98.80
70074;DHT22;57445;51.058;3.698;2023-04-06T10:29:24;12.40;99.20
70074;DHT22;57445;51.058;3.698;2023-04-06T10:31:55;12.40;99.30
70074;DHT22;57445;51.058;3.698;2023-04-06T10:34:23;12.20;99.90
70074;DHT22;57445;51.058;3.698;2023-04-06T10:37:11;12.30;99.90
70074;DHT22;57445;51.058;3.698;2023-04-06T10:39:46;12.20;99.90
70074;DHT22;57445;51.058;3.698;2023-04-06T10:42:20;12.30;99.90
70074;DHT22;57445;51.058;3.698;2023-04-06T10:44:51;12.20;99.90
70074;DHT22;57445;51.058;3.698;2023-04-06T10:47:20;12.40;99.90
70074;DHT22;57445;51.058;3.698;2023-04-06T10:49:47;12.60;99.90
70074;DHT22;57445;51.058;3.698;2023-04-06T10:52:20;12.50;99.90
70074;DHT22;57445;51.058;3.698;2023-04-06T10:54:48;12.80;99.40
70074;DHT22;57445;51.058;3.698;2023-04-06T10:57:16;12.80;99.90
70074;DHT22;57445;51.058;3.698;2023-04-06T10:59:48;12.70;99.90
70074;DHT22;57445;51.058;3.698;2023-04-06T11:02:21;12.60;99.90
70074;DHT22;57445;51.058;3.698;2023-04-06T11:04:58;12.50;99.90
70074;DHT22;57445;51.058;3.698;2023-04-06T11:07:27;12.70;99.90
70074;DHT22;57445;51.058;3.698;2023-04-06T11:10:00;12.90;99.50
70074;DHT22;57445;51.058;3.698;2023-04-06T11:12:33;13.00;99.70
70074;DHT22;57445;51.058;3.698;2023-04-06T11:15:06;13.10;99.30
70074;DHT22;57445;51.058;3.698;2023-04-06T11:17:37;13.10;99.60
70074;DHT22;57445;51.058;3.698;2023-04-06T11:20:10;13.10;99.50
70074;DHT22;57445;51.058;3.698;2023-04-06T11:22:48;13.00;99.40
70074;DHT22;57445;51.058;3.698;2023-04-06T11:25:17;13.00;99.90
70074;DHT22;57445;51.058;3.698;2023-04-06T11:27:49;13.10;99.70
70074;DHT22;57445;51.058;3.698;2023-04-06T11:30:18;13.10;99.90
70074;DHT22;57445;51.058;3.698;2023-04-06T11:32:52;13.10;99.90
70074;DHT22;57445;51.058;3.698;2023-04-06T11:35:21;12.80;99.90
70074;DHT22;57445;51.058;3.698;2023-04-06T11:37:50;12.70;99.90
70074;DHT22;57445;51.058;3.698;2023-04-06T11:40:22;12.70;99.90
70074;DHT22;57445;51.058;3.698;2023-04-06T11:42:56;12.50;99.90
70074;DHT22;57445;51.058;3.698;2023-04-06T11:45:23;12.20;99.90
70074;DHT22;57445;51.058;3.698;2023-04-06T11:47:59;12.30;99.90
70074;DHT22;57445;51.058;3.698;2023-04-06T11:50:32;12.20;99.90
70074;DHT22;57445;51.058;3.698;2023-04-06T11:53:05;12.50;99.90
70074;DHT22;57445;51.058;3.698;2023-04-06T11:55:39;12.60;99.90
70074;DHT22;57445;51.058;3.698;2023-04-06T11:58:07;12.70;99.90
70074;DHT22;57445;51.058;3.698;2023-04-06T12:00:36;12.90;99.90
70074;DHT22;57445;51.058;3.698;2023-04-06T12:03:05;12.90;99.90
70074;DHT22;57445;51.058;3.698;2023-04-06T12:05:34;13.00;99.90
70074;DHT22;57445;51.058;3.698;2023-04-06T12:08:06;13.00;99.90
70074;DHT22;57445;51.058;3.698;2023-04-06T12:10:34;13.00;99.80
70074;DHT22;57445;51.058;3.698;2023-04-06T12:13:02;13.00;99.90
70074;DHT22;57445;51.058;3.698;2023-04-06T12:15:35;13.20;99.40
70074;DHT22;57445;51.058;3.698;2023-04-06T12:18:04;13.30;99.60
70074;DHT22;57445;51.058;3.698;2023-04-06T12:20:35;13.40;99.90
70074;DHT22;57445;51.058;3.698;2023-04-06T12:23:07;13.20;99.80
70074;DHT22;57445;51.058;3.698;2023-04-06T12:25:35;13.20;99.50
70074;DHT22;57445;51.058;3.698;2023-04-06T12:28:04;13.20;99.80
70074;DHT22;57445;51.058;3.698;2023-04-06T12:30:37;13.40;99.70
70074;DHT22;57445;51.058;3.698;2023-04-06T12:33:08;13.10;99.50
70074;DHT22;57445;51.058;3.698;2023-04-06T12:35:43;13.00;99.90
70074;DHT22;57445;51.058;3.698;2023-04-06T12:38:11;13.00;99.90
70074;DHT22;57445;51.058;3.698;2023-04-06T12:40:39;13.30;99.70
70074;DHT22;57445;51.058;3.698;2023-04-06T12:43:07;13.50;99.20
70074;DHT22;57445;51.058;3.698;2023-04-06T12:45:35;13.40;99.70
70074;DHT22;57445;51.058;3.698;2023-04-06T12:48:03;13.40;99.40
70074;DHT22;57445;51.058;3.698;2023-04-06T12:50:32;13.60;99.60
70074;DHT22;57445;51.058;3.698;2023-04-06T12:53:00;13.50;98.90
70074;DHT22;57445;51.058;3.698;2023-04-06T12:55:32;13.60;98.80
70074;DHT22;57445;51.058;3.698;2023-04-06T12:58:06;13.30;99.40
70074;DHT22;57445;51.058;3.698;2023-04-06T13:00:34;13.20;99.90
70074;DHT22;57445;51.058;3.698;2023-04-06T13:03:02;12.70;99.90
70074;DHT22;57445;51.058;3.698;2023-04-06T13:05:31;13.10;99.90
70074;DHT22;57445;51.058;3.698;2023-04-06T13:07:59;13.20;99.90
70074;DHT22;57445;51.058;3.698;2023-04-06T13:10:27;13.30;99.90
70074;DHT22;57445;51.058;3.698;2023-04-06T13:12:59;13.40;99.60
70074;DHT22;57445;51.058;3.698;2023-04-06T13:15:27;13.40;99.80
70074;DHT22;57445;51.058;3.698;2023-04-06T13:17:55;13.50;99.50
70074;DHT22;57445;51.058;3.698;2023-04-06T13:20:28;13.50;99.20
70074;DHT22;57445;51.058;3.698;2023-04-06T13:23:01;13.20;99.90
70074;DHT22;57445;51.058;3.698;2023-04-06T13:25:37;13.20;99.90
70074;DHT22;57445;51.058;3.698;2023-04-06T13:28:05;13.30;99.90
70074;DHT22;57445;51.058;3.698;2023-04-06T13:30:33;13.10;99.90
70074;DHT22;57445;51.058;3.698;2023-04-06T13:33:06;13.30;99.90
70074;DHT22;57445;51.058;3.698;2023-04-06T13:35:38;13.40;99.90
70074;DHT22;57445;51.058;3.698;2023-04-06T13:38:11;13.40;99.90
70074;DHT22;57445;51.058;3.698;2023-04-06T13:40:44;13.50;99.90
70074;DHT22;57445;51.058;3.698;2023-04-06T13:43:16;13.30;99.90
70074;DHT22;57445;51.058;3.698;2023-04-06T13:45:52;13.30;99.90
70074;DHT22;57445;51.058;3.698;2023-04-06T13:48:20;13.40;99.90
70074;DHT22;57445;51.058;3.698;2023-04-06T13:50:53;13.70;99.90
70074;DHT22;57445;51.058;3.698;2023-04-06T13:53:27;13.70;99.90
70074;DHT22;57445;51.058;3.698;2023-04-06T13:55:55;13.80;99.90
70074;DHT22;57445;51.058;3.698;2023-04-06T13:58:27;13.40;99.90
70074;DHT22;57445;51.058;3.698;2023-04-06T14:01:02;13.20;99.90
70074;DHT22;57445;51.058;3.698;2023-04-06T14:03:30;13.20;99.90
70074;DHT22;57445;51.058;3.698;2023-04-06T14:06:11;13.40;99.90
70074;DHT22;57445;51.058;3.698;2023-04-06T14:08:40;13.70;99.90
70074;DHT22;57445;51.058;3.698;2023-04-06T14:11:13;13.80;99.90
70074;DHT22;57445;51.058;3.698;2023-04-06T14:13:42;13.70;99.90
70074;DHT22;57445;51.058;3.698;2023-04-06T14:16:15;13.90;99.90
70074;DHT22;57445;51.058;3.698;2023-04-06T14:18:45;14.40;99.90
70074;DHT22;57445;51.058;3.698;2023-04-06T14:21:17;14.10;99.90
70074;DHT22;57445;51.058;3.698;2023-04-06T14:23:52;13.80;99.90
70074;DHT22;57445;51.058;3.698;2023-04-06T14:26:20;13.40;99.90
70074;DHT22;57445;51.058;3.698;2023-04-06T14:28:52;13.70;99.90
70074;DHT22;57445;51.058;3.698;2023-04-06T14:31:25;13.70;99.90
70074;DHT22;57445;51.058;3.698;2023-04-06T14:33:54;13.60;99.90
70074;DHT22;57445;51.058;3.698;2023-04-06T14:36:22;13.80;99.90
70074;DHT22;57445;51.058;3.698;2023-04-06T14:38:57;13.90;99.90
70074;DHT22;57445;51.058;3.698;2023-04-06T14:41:33;14.00;99.90
70074;DHT22;57445;51.058;3.698;2023-04-06T14:44:06;13.80;99.90
70074;DHT22;57445;51.058;3.698;2023-04-06T14:46:42;13.70;99.90
70074;DHT22;57445;51.058;3.698;2023-04-06T14:49:14;13.90;99.90
70074;DHT22;57445;51.058;3.698;2023-04-06T14:51:42;14.10;99.90
70074;DHT22;57445;51.058;3.698;2023-04-06T14:54:11;13.70;99.90
70074;DHT22;57445;51.058;3.698;2023-04-06T14:56:39;13.90;99.90
70074;DHT22;57445;51.058;3.698;2023-04-06T14:59:08;13.70;99.90
70074;DHT22;57445;51.058;3.698;2023-04-06T15:01:40;13.60;99.90
70074;DHT22;57445;51.058;3.698;2023-04-06T15:04:08;13.20;99.90
70074;DHT22;57445;51.058;3.698;2023-04-06T15:06:35;13.30;99.90
70074;DHT22;57445;51.058;3.698;2023-04-06T15:09:03;13.40;99.90
70074;DHT22;57445;51.058;3.698;2023-04-06T15:11:37;13.60;99.90
70074;DHT22;57445;51.058;3.698;2023-04-06T15:14:06;13.80;99.90
70074;DHT22;57445;51.058;3.698;2023-04-06T15:16:33;14.10;99.90
70074;DHT22;57445;51.058;3.698;2023-04-06T15:19:06;14.20;99.90
70074;DHT22;57445;51.058;3.698;2023-04-06T15:21:34;14.60;99.90
70074;DHT22;57445;51.058;3.698;2023-04-06T15:24:03;14.90;99.90
70074;DHT22;57445;51.058;3.698;2023-04-06T15:26:32;14.70;99.90
70074;DHT22;57445;51.058;3.698;2023-04-06T15:29:06;14.70;99.90
70074;DHT22;57445;51.058;3.698;2023-04-06T15:31:34;15.20;99.90
70074;DHT22;57445;51.058;3.698;2023-04-06T15:34:07;15.30;99.90
70074;DHT22;57445;51.058;3.698;2023-04-06T15:36:39;15.10;99.90
70074;DHT22;57445;51.058;3.698;2023-04-06T15:39:14;14.40;99.90
70074;DHT22;57445;51.058;3.698;2023-04-06T15:41:46;14.00;99.90
70074;DHT22;57445;51.058;3.698;2023-04-06T15:44:15;13.50;99.90
70074;DHT22;57445;51.058;3.698;2023-04-06T15:46:48;13.40;99.90
70074;DHT22;57445;51.058;3.698;2023-04-06T15:49:17;13.20;99.90
70074;DHT22;57445;51.058;3.698;2023-04-06T15:51:46;13.20;99.90
70074;DHT22;57445;51.058;3.698;2023-04-06T15:54:14;13.40;99.90